Westline, Pennsylvania
Current Conditions -  °F | °C
As of 9:53 PM on Sunday 23 Nov 2014 (Local Time) from KBFD Reporting Station
Broken Clouds Broken Clouds  
Wind Chill: 40°   Ceiling: 6000
Heat Index: 47°   Visibility: 10mi
Dew Point: 34°   Wind: 17mph
Humidity: 61%   Direction: 140°SE
Pressure: 29.75"   Gusts: 29mph
Location:  41.78°N, 78.77°W
Report Text: KBFD 240253Z AUTO 14015G25KT 10SM SCT023 BKN060 BKN120 08/01 A2975 RMK AO2 SLP079 T00830011 56031
Loading
Personal Weather Stations






























Interactive Weather Map New forecast layout! Learn more

10-Day Weather Forecast

Advertisements
Track Severe Weather on mobile